createdAt,value
2023-05-09T00:00:31.027Z,48.75
2023-05-09T00:02:58.117Z,48.56
2023-05-09T00:05:25.177Z,48.40
2023-05-09T00:07:52.257Z,48.15
2023-05-09T00:10:19.251Z,48.28
2023-05-09T00:12:47.370Z,48.89
2023-05-09T00:15:14.522Z,48.66
2023-05-09T00:17:41.911Z,48.72
2023-05-09T00:20:12.238Z,49.04
2023-05-09T00:22:41.061Z,48.63
2023-05-09T00:25:11.916Z,48.91
2023-05-09T00:27:39.119Z,49.26
2023-05-09T00:30:06.840Z,49.08
2023-05-09T00:32:34.052Z,49.58
2023-05-09T00:35:01.185Z,49.00
2023-05-09T00:37:30.642Z,48.88
2023-05-09T00:39:57.628Z,48.37
2023-05-09T00:42:24.689Z,48.19
2023-05-09T00:44:51.725Z,47.92
2023-05-09T00:47:18.715Z,47.88
2023-05-09T00:49:45.778Z,47.71
2023-05-09T00:52:12.793Z,47.29
2023-05-09T00:54:39.948Z,46.40
2023-05-09T00:57:07.179Z,46.44
2023-05-09T00:59:34.187Z,45.93
2023-05-09T01:02:01.412Z,46.26
2023-05-09T01:04:28.988Z,46.03
2023-05-09T01:07:03.013Z,45.23
2023-05-09T01:09:37.254Z,45.43
2023-05-09T01:12:11.423Z,45.38
2023-05-09T01:15:04.438Z,44.52
2023-05-09T01:17:53.692Z,45.19
2023-05-09T01:20:20.659Z,45.08
2023-05-09T01:22:56.598Z,44.99
2023-05-09T01:25:42.836Z,45.33
2023-05-09T01:28:14.818Z,45.63
2023-05-09T01:30:45.964Z,45.42
2023-05-09T01:33:16.573Z,44.60
2023-05-09T01:35:46.124Z,44.78
2023-05-09T01:38:15.816Z,45.60
2023-05-09T01:40:42.851Z,45.41
2023-05-09T01:43:10.296Z,45.59
2023-05-09T01:45:39.319Z,44.43
2023-05-09T01:48:07.401Z,44.23
2023-05-09T01:50:34.436Z,44.01
2023-05-09T01:53:01.583Z,44.42
2023-05-09T01:55:30.851Z,44.12
2023-05-09T01:57:57.955Z,43.83
2023-05-09T02:00:25.503Z,43.62
2023-05-09T02:02:53.765Z,43.05
2023-05-09T02:05:20.949Z,43.36
2023-05-09T02:07:48.046Z,43.56
2023-05-09T02:10:15.066Z,43.83
2023-05-09T02:12:42.109Z,43.21
2023-05-09T02:15:09.926Z,42.92
2023-05-09T02:17:40.714Z,43.37
2023-05-09T02:20:10.009Z,43.12
2023-05-09T02:22:37.300Z,44.31
2023-05-09T02:25:07.422Z,44.06
2023-05-09T02:27:34.688Z,44.32
2023-05-09T02:30:04.185Z,44.10
2023-05-09T02:32:31.771Z,43.11
2023-05-09T02:34:59.217Z,42.94
2023-05-09T02:37:26.322Z,42.51
2023-05-09T02:39:53.301Z,42.28
2023-05-09T02:42:22.661Z,42.50
2023-05-09T02:44:49.762Z,42.52
2023-05-09T02:47:16.837Z,44.44
2023-05-09T02:49:43.826Z,43.47
2023-05-09T02:52:11.929Z,43.51
2023-05-09T02:54:39.036Z,43.29
2023-05-09T02:57:06.020Z,43.73
2023-05-09T02:59:33.366Z,43.90
2023-05-09T03:02:02.453Z,43.69
2023-05-09T03:04:31.700Z,44.24
2023-05-09T03:06:59.602Z,44.78
2023-05-09T03:09:31.578Z,44.01
2023-05-09T03:11:58.545Z,44.22
2023-05-09T03:14:26.084Z,44.57
2023-05-09T03:16:54.827Z,44.55
2023-05-09T03:19:27.328Z,44.86
2023-05-09T03:21:54.480Z,44.22
2023-05-09T03:24:21.863Z,44.55
2023-05-09T03:26:48.917Z,44.47
2023-05-09T03:29:15.960Z,44.35
2023-05-09T03:31:43.045Z,44.00
2023-05-09T03:34:15.126Z,45.17
2023-05-09T03:36:44.032Z,44.79
2023-05-09T03:39:13.189Z,44.92
2023-05-09T03:41:44.305Z,44.81
2023-05-09T03:44:12.455Z,44.71
2023-05-09T03:46:39.592Z,45.19
2023-05-09T03:49:07.100Z,44.98
2023-05-09T03:51:35.181Z,45.38
2023-05-09T03:54:04.133Z,45.08
2023-05-09T03:56:31.171Z,45.75
2023-05-09T03:58:59.828Z,45.50
2023-05-09T04:01:27.689Z,45.22
2023-05-09T04:03:57.881Z,45.11
2023-05-09T04:06:26.051Z,44.99
2023-05-09T04:08:53.158Z,45.75
2023-05-09T04:11:21.958Z,45.92
2023-05-09T04:13:49.648Z,45.92
2023-05-09T04:16:32.215Z,45.20
2023-05-09T04:18:59.458Z,45.43
2023-05-09T04:21:26.624Z,44.79
2023-05-09T04:23:56.932Z,44.76
2023-05-09T04:26:31.526Z,44.21
2023-05-09T04:29:04.309Z,44.80
2023-05-09T04:31:31.779Z,44.11
2023-05-09T04:33:59.871Z,43.96
2023-05-09T04:36:29.062Z,43.86
2023-05-09T04:38:58.100Z,43.43
2023-05-09T04:41:27.759Z,42.84
2023-05-09T04:43:54.771Z,42.97
2023-05-09T04:46:25.635Z,42.77
2023-05-09T04:48:52.966Z,41.87
2023-05-09T04:51:20.757Z,42.02
2023-05-09T04:53:47.802Z,41.91
2023-05-09T04:56:17.490Z,41.44
2023-05-09T04:58:46.166Z,41.16
2023-05-09T05:01:13.253Z,42.16
2023-05-09T05:03:40.735Z,41.60
2023-05-09T05:06:07.890Z,41.47
2023-05-09T05:08:36.077Z,41.29
2023-05-09T05:11:03.251Z,41.30
2023-05-09T05:13:30.315Z,42.29
2023-05-09T05:16:00.511Z,42.57
2023-05-09T05:18:27.573Z,41.59
2023-05-09T05:20:54.908Z,42.22
2023-05-09T05:23:22.354Z,43.80
2023-05-09T05:25:52.875Z,42.67
2023-05-09T05:28:20.051Z,42.72
2023-05-09T05:30:47.529Z,44.13
2023-05-09T05:33:14.652Z,43.70
2023-05-09T05:35:41.782Z,42.57
2023-05-09T05:38:08.858Z,44.67
2023-05-09T05:40:36.196Z,42.79
2023-05-09T05:43:05.070Z,42.67
2023-05-09T05:45:33.830Z,43.85
2023-05-09T05:48:03.526Z,43.62
2023-05-09T05:50:31.981Z,42.71
2023-05-09T05:52:59.598Z,41.79
2023-05-09T05:55:26.824Z,40.75
2023-05-09T05:57:53.914Z,40.38
2023-05-09T06:00:21.052Z,39.01
2023-05-09T06:02:54.938Z,39.53
2023-05-09T06:05:45.325Z,39.88
2023-05-09T06:08:12.621Z,40.10
2023-05-09T06:10:39.594Z,40.44
2023-05-09T06:13:07.028Z,38.93
2023-05-09T06:15:35.457Z,39.97
2023-05-09T06:18:02.533Z,41.72
2023-05-09T06:20:29.506Z,42.71
2023-05-09T06:22:56.475Z,41.31
2023-05-09T06:25:23.480Z,40.81
2023-05-09T06:27:50.769Z,41.07
2023-05-09T06:30:26.290Z,39.55
2023-05-09T06:32:58.256Z,39.00
2023-05-09T06:35:25.413Z,37.98
2023-05-09T06:37:52.483Z,36.57
2023-05-09T06:40:19.760Z,36.48
2023-05-09T06:42:46.815Z,36.55
2023-05-09T06:45:14.998Z,36.81
2023-05-09T06:47:42.158Z,36.03
2023-05-09T06:50:09.438Z,36.44
2023-05-09T06:52:36.441Z,36.21
2023-05-09T06:55:03.972Z,36.13
2023-05-09T06:57:31.089Z,37.62
2023-05-09T06:59:58.156Z,36.47
2023-05-09T07:02:25.358Z,35.19
2023-05-09T07:04:52.358Z,35.98
2023-05-09T07:07:19.670Z,36.07
2023-05-09T07:09:46.854Z,35.93
2023-05-09T07:12:14.328Z,38.74
2023-05-09T07:14:41.963Z,39.38
2023-05-09T07:17:22.226Z,42.33
2023-05-09T07:19:51.384Z,39.74
2023-05-09T07:22:18.445Z,40.08
2023-05-09T07:24:46.522Z,39.92
2023-05-09T07:27:13.741Z,39.51
2023-05-09T07:29:40.756Z,39.90
2023-05-09T07:32:07.944Z,36.56
2023-05-09T07:34:35.779Z,38.01
2023-05-09T07:37:02.733Z,38.62
2023-05-09T07:39:29.783Z,37.68
2023-05-09T07:41:56.809Z,36.10
2023-05-09T07:44:23.812Z,35.59
2023-05-09T07:46:50.893Z,35.94
2023-05-09T07:49:17.897Z,35.36
2023-05-09T07:51:44.884Z,35.97
2023-05-09T07:54:11.982Z,35.28
2023-05-09T07:56:38.974Z,36.36
2023-05-09T07:59:05.947Z,36.09
2023-05-09T08:01:33.021Z,35.52
2023-05-09T08:04:00.397Z,34.87
2023-05-09T08:06:27.456Z,36.60
2023-05-09T08:08:54.387Z,35.97
2023-05-09T08:11:21.471Z,37.50
2023-05-09T08:13:48.503Z,36.49
2023-05-09T08:16:17.689Z,37.45
2023-05-09T08:18:44.913Z,37.24
2023-05-09T08:21:11.979Z,37.55
2023-05-09T08:23:39.010Z,37.93
2023-05-09T08:26:06.017Z,36.50
2023-05-09T08:28:33.210Z,36.36
2023-05-09T08:31:00.207Z,36.05
2023-05-09T08:33:27.467Z,35.89
2023-05-09T08:35:54.514Z,35.34
2023-05-09T08:38:21.526Z,36.37
2023-05-09T08:40:48.545Z,34.87
2023-05-09T08:43:18.200Z,35.37
2023-05-09T08:45:58.148Z,36.09
2023-05-09T08:48:25.372Z,34.70
2023-05-09T08:50:52.408Z,34.04
2023-05-09T08:53:19.498Z,38.78
2023-05-09T08:55:46.535Z,37.39
2023-05-09T08:58:13.684Z,35.73
2023-05-09T09:00:41.378Z,36.95
2023-05-09T09:03:08.475Z,36.22
2023-05-09T09:05:41.907Z,35.37
2023-05-09T09:08:10.013Z,34.96
2023-05-09T09:10:37.504Z,34.22
2023-05-09T09:13:05.092Z,34.51
2023-05-09T09:15:36.490Z,37.21
2023-05-09T09:18:08.047Z,36.49
2023-05-09T09:20:35.805Z,35.38
2023-05-09T09:23:04.779Z,34.19
2023-05-09T09:25:31.790Z,34.54
2023-05-09T09:27:58.921Z,34.38
2023-05-09T09:30:26.720Z,34.58
2023-05-09T09:32:53.781Z,34.68
2023-05-09T09:35:20.962Z,35.08
2023-05-09T09:37:48.193Z,37.74
2023-05-09T09:40:15.478Z,37.04
2023-05-09T09:42:46.120Z,34.88
2023-05-09T09:45:15.142Z,36.56
2023-05-09T09:47:47.008Z,37.99
2023-05-09T09:50:15.848Z,36.27
2023-05-09T09:52:52.938Z,34.61
2023-05-09T09:55:20.179Z,33.31
2023-05-09T09:57:48.271Z,36.47
2023-05-09T10:00:16.542Z,36.23
2023-05-09T10:02:57.322Z,34.54
2023-05-09T10:05:28.976Z,34.16
2023-05-09T10:08:03.823Z,35.28
2023-05-09T10:10:32.082Z,35.79
2023-05-09T10:13:03.031Z,32.28
2023-05-09T10:15:38.520Z,33.54
2023-05-09T10:18:14.688Z,32.69
2023-05-09T10:20:42.221Z,31.17
2023-05-09T10:23:09.209Z,29.51
2023-05-09T10:25:43.954Z,33.94
2023-05-09T10:28:12.207Z,36.10
2023-05-09T10:31:01.869Z,35.52
2023-05-09T10:33:36.822Z,37.29
2023-05-09T10:36:04.098Z,36.69
2023-05-09T10:38:31.301Z,34.88
2023-05-09T10:40:58.346Z,32.87
2023-05-09T10:43:25.419Z,32.86
2023-05-09T10:45:52.713Z,31.93
2023-05-09T10:48:19.816Z,31.28
2023-05-09T10:50:47.152Z,30.19
2023-05-09T10:53:15.360Z,30.75
2023-05-09T10:56:02.085Z,30.59
2023-05-09T10:58:40.831Z,32.14
2023-05-09T11:01:08.058Z,32.27
2023-05-09T11:03:54.781Z,30.49
2023-05-09T11:06:42.853Z,29.08
2023-05-09T11:09:41.669Z,32.10
2023-05-09T11:12:12.268Z,31.15
2023-05-09T11:14:40.861Z,29.88
2023-05-09T11:17:09.677Z,29.54
2023-05-09T11:19:45.767Z,30.15
2023-05-09T11:22:29.300Z,30.28
2023-05-09T11:25:25.246Z,30.19
2023-05-09T11:27:52.413Z,30.49
2023-05-09T11:30:19.985Z,28.77
2023-05-09T11:32:55.881Z,28.01
2023-05-09T11:35:23.508Z,31.24
2023-05-09T11:37:51.344Z,31.24
2023-05-09T11:40:19.413Z,31.77
2023-05-09T11:42:58.467Z,29.52
2023-05-09T11:45:27.978Z,27.86
2023-05-09T11:47:54.988Z,28.15
2023-05-09T11:50:22.114Z,28.17
2023-05-09T11:52:49.213Z,28.42
2023-05-09T11:55:19.354Z,27.15
2023-05-09T11:57:49.061Z,26.96
2023-05-09T12:00:17.696Z,28.58
2023-05-09T12:02:46.071Z,26.43
2023-05-09T12:05:14.755Z,26.41
2023-05-09T12:07:42.306Z,26.75
2023-05-09T12:10:10.437Z,27.69
2023-05-09T12:12:41.805Z,26.12
2023-05-09T12:15:09.306Z,26.05
2023-05-09T12:17:36.445Z,25.80
2023-05-09T12:20:05.696Z,27.03
2023-05-09T12:22:33.064Z,27.09
2023-05-09T12:25:01.788Z,28.58
2023-05-09T12:27:29.495Z,30.88
2023-05-09T12:29:56.479Z,30.01
2023-05-09T12:32:23.589Z,28.94
2023-05-09T12:34:52.062Z,28.08
2023-05-09T12:37:19.607Z,27.22
2023-05-09T12:40:04.269Z,26.65
2023-05-09T12:42:35.045Z,26.53
2023-05-09T12:45:02.633Z,24.98
2023-05-09T12:47:31.885Z,27.28
2023-05-09T12:50:03.080Z,27.20
2023-05-09T12:52:41.686Z,27.89
2023-05-09T12:55:14.449Z,28.48
2023-05-09T12:57:43.013Z,27.78
2023-05-09T13:00:10.479Z,27.35
2023-05-09T13:02:39.164Z,26.11
2023-05-09T13:05:07.056Z,25.55
2023-05-09T13:07:50.917Z,26.23
2023-05-09T13:10:24.018Z,23.62
2023-05-09T13:12:51.501Z,25.36
2023-05-09T13:15:22.705Z,25.22
2023-05-09T13:17:50.749Z,24.93
2023-05-09T13:20:18.526Z,26.22
2023-05-09T13:22:46.033Z,25.99
2023-05-09T13:25:13.071Z,25.74
2023-05-09T13:27:40.088Z,25.22
2023-05-09T13:30:07.817Z,25.03
2023-05-09T13:32:36.739Z,23.92
2023-05-09T13:35:06.848Z,23.40
2023-05-09T13:37:35.591Z,22.31
2023-05-09T13:40:03.080Z,24.37
2023-05-09T13:42:30.067Z,23.76
2023-05-09T13:44:57.092Z,23.16
2023-05-09T13:47:24.154Z,23.62
2023-05-09T13:49:52.262Z,22.97
2023-05-09T13:52:19.639Z,24.29
2023-05-09T13:54:47.319Z,25.13
2023-05-09T13:57:14.481Z,24.73
2023-05-09T13:59:41.703Z,24.06
2023-05-09T14:02:08.806Z,25.61
2023-05-09T14:04:36.168Z,24.59
2023-05-09T14:07:03.255Z,25.18
2023-05-09T14:09:30.229Z,24.20
2023-05-09T14:11:57.556Z,23.84
2023-05-09T14:14:24.927Z,23.57
2023-05-09T14:16:52.229Z,23.68
2023-05-09T14:19:19.279Z,23.74
2023-05-09T14:21:49.116Z,23.38
2023-05-09T14:24:16.591Z,24.47
2023-05-09T14:26:43.926Z,24.23
2023-05-09T14:29:11.043Z,25.48
2023-05-09T14:31:38.365Z,25.11
2023-05-09T14:34:06.246Z,24.76
2023-05-09T14:36:33.254Z,25.28
2023-05-09T14:39:00.296Z,27.77
2023-05-09T14:41:27.567Z,25.06
2023-05-09T14:43:54.565Z,24.17
2023-05-09T14:46:21.727Z,24.28
2023-05-09T14:48:48.740Z,24.40
2023-05-09T14:51:15.749Z,26.01
2023-05-09T14:53:42.782Z,26.39
2023-05-09T14:56:11.602Z,25.56
2023-05-09T14:58:38.711Z,25.41
2023-05-09T15:01:05.815Z,26.89
2023-05-09T15:03:32.856Z,27.87
2023-05-09T15:05:59.900Z,26.84
2023-05-09T15:08:27.163Z,27.38
2023-05-09T15:10:54.219Z,27.01
2023-05-09T15:13:21.782Z,26.68
2023-05-09T15:15:49.016Z,28.13
2023-05-09T15:18:18.473Z,27.66
2023-05-09T15:20:45.582Z,27.93
2023-05-09T15:23:13.214Z,27.02
2023-05-09T15:25:42.957Z,26.64
2023-05-09T15:28:09.937Z,26.30
2023-05-09T15:30:38.936Z,26.04
2023-05-09T15:33:06.449Z,26.29
2023-05-09T15:35:33.627Z,26.83
2023-05-09T15:38:00.611Z,27.10
2023-05-09T15:40:28.325Z,27.27
2023-05-09T15:42:55.314Z,28.13
2023-05-09T15:45:22.335Z,29.56
2023-05-09T15:47:49.332Z,30.51
2023-05-09T15:50:16.707Z,29.81
2023-05-09T15:52:43.964Z,29.46
2023-05-09T15:55:13.013Z,29.85
2023-05-09T15:57:40.144Z,31.06
2023-05-09T16:00:07.671Z,31.85
2023-05-09T16:02:39.741Z,29.82
2023-05-09T16:05:07.082Z,29.31
2023-05-09T16:07:35.650Z,28.45
2023-05-09T16:10:03.241Z,30.04
2023-05-09T16:12:32.902Z,30.25
2023-05-09T16:15:00.197Z,30.34
2023-05-09T16:17:27.421Z,30.29
2023-05-09T16:19:55.226Z,30.46
2023-05-09T16:22:22.709Z,30.23
2023-05-09T16:24:49.656Z,30.58
2023-05-09T16:27:17.305Z,31.65
2023-05-09T16:29:44.326Z,31.66
2023-05-09T16:32:11.393Z,33.32
2023-05-09T16:34:38.508Z,33.68
2023-05-09T16:37:06.280Z,33.85
2023-05-09T16:39:33.296Z,35.20
2023-05-09T16:42:00.602Z,33.68
2023-05-09T16:44:27.645Z,33.50
2023-05-09T16:46:54.889Z,32.89
2023-05-09T16:49:22.138Z,32.50
2023-05-09T16:51:49.175Z,34.11
2023-05-09T16:54:16.170Z,34.10
2023-05-09T16:56:43.302Z,35.13
2023-05-09T16:59:10.244Z,34.92
2023-05-09T17:01:37.803Z,33.84
2023-05-09T17:04:06.918Z,33.64
2023-05-09T17:06:34.369Z,33.84
2023-05-09T17:09:01.408Z,34.39
2023-05-09T17:11:29.185Z,34.09
2023-05-09T17:13:56.209Z,33.87
2023-05-09T17:16:23.242Z,34.04
2023-05-09T17:18:50.378Z,33.74
2023-05-09T17:21:17.382Z,34.04
2023-05-09T17:23:44.575Z,33.95
2023-05-09T17:26:11.586Z,33.65
2023-05-09T17:28:38.567Z,33.89
2023-05-09T17:31:05.698Z,34.09
2023-05-09T17:33:32.751Z,34.09
2023-05-09T17:36:00.185Z,34.50
2023-05-09T17:38:27.194Z,35.92
2023-05-09T17:40:54.277Z,35.65
2023-05-09T17:43:22.330Z,35.04
2023-05-09T17:45:49.376Z,35.14
2023-05-09T17:48:16.468Z,35.33
2023-05-09T17:50:43.948Z,35.05
2023-05-09T17:53:10.960Z,35.01
2023-05-09T17:55:37.953Z,34.81
2023-05-09T17:58:05.032Z,34.77
2023-05-09T18:00:32.192Z,34.17
2023-05-09T18:03:00.775Z,34.27
2023-05-09T18:05:28.059Z,33.89
2023-05-09T18:07:55.325Z,34.02
2023-05-09T18:10:22.329Z,33.61
2023-05-09T18:12:49.657Z,33.62
2023-05-09T18:15:16.693Z,32.90
2023-05-09T18:17:44.199Z,33.28
2023-05-09T18:20:11.648Z,33.60
2023-05-09T18:22:38.611Z,33.61
2023-05-09T18:25:05.981Z,35.04
2023-05-09T18:27:32.948Z,34.70
2023-05-09T18:30:00.031Z,35.11
2023-05-09T18:32:27.126Z,34.67
2023-05-09T18:34:54.205Z,34.58
2023-05-09T18:37:22.834Z,34.17
2023-05-09T18:39:49.934Z,33.97
2023-05-09T18:42:17.049Z,33.74
2023-05-09T18:44:44.336Z,33.83
2023-05-09T18:47:12.114Z,34.24
2023-05-09T18:49:39.417Z,33.79
2023-05-09T18:52:06.575Z,33.78
2023-05-09T18:54:33.692Z,33.66
2023-05-09T18:57:01.680Z,33.84
2023-05-09T18:59:28.890Z,34.12
2023-05-09T19:01:55.981Z,34.46
2023-05-09T19:04:23.138Z,34.63
2023-05-09T19:06:50.315Z,34.70
2023-05-09T19:09:18.139Z,34.90
2023-05-09T19:11:48.480Z,34.78
2023-05-09T19:14:15.803Z,35.35
2023-05-09T19:16:43.200Z,35.72
2023-05-09T19:19:10.309Z,36.06
2023-05-09T19:21:37.606Z,36.12
2023-05-09T19:24:06.762Z,36.31
2023-05-09T19:26:34.647Z,35.81
2023-05-09T19:29:04.155Z,35.48
2023-05-09T19:31:31.417Z,35.30
2023-05-09T19:33:58.663Z,35.36
2023-05-09T19:36:25.789Z,35.04
2023-05-09T19:38:53.159Z,35.10
2023-05-09T19:41:20.363Z,35.44
2023-05-09T19:43:50.809Z,35.18
2023-05-09T19:46:19.324Z,35.14
2023-05-09T19:48:46.545Z,35.16
2023-05-09T19:51:15.788Z,35.18
2023-05-09T19:53:43.305Z,34.82
2023-05-09T19:56:10.934Z,34.86
2023-05-09T19:58:38.057Z,34.48
2023-05-09T20:01:08.217Z,34.79
2023-05-09T20:03:37.173Z,34.74
2023-05-09T20:06:04.487Z,34.88
2023-05-09T20:08:31.846Z,35.51
2023-05-09T20:11:00.200Z,35.90
2023-05-09T20:13:27.798Z,36.45
2023-05-09T20:15:55.344Z,36.99
2023-05-09T20:18:22.549Z,37.18
2023-05-09T20:20:49.964Z,37.18
2023-05-09T20:23:17.197Z,36.62
2023-05-09T20:25:44.336Z,35.80
2023-05-09T20:28:12.313Z,36.42
2023-05-09T20:30:39.426Z,36.17
2023-05-09T20:33:06.593Z,35.89
2023-05-09T20:35:34.041Z,36.26
2023-05-09T20:38:01.368Z,36.47
2023-05-09T20:40:28.784Z,36.12
2023-05-09T20:42:55.839Z,35.65
2023-05-09T20:45:22.989Z,35.48
2023-05-09T20:47:50.124Z,35.21
2023-05-09T20:50:17.525Z,35.16
2023-05-09T20:52:45.150Z,35.44
2023-05-09T20:55:12.529Z,34.93
2023-05-09T20:57:39.642Z,34.98
2023-05-09T21:00:07.700Z,35.95
2023-05-09T21:02:34.966Z,35.33
2023-05-09T21:05:02.035Z,34.94
2023-05-09T21:07:30.682Z,35.59
2023-05-09T21:09:58.239Z,35.67
2023-05-09T21:12:25.222Z,36.14
2023-05-09T21:14:52.420Z,36.38
2023-05-09T21:17:19.678Z,36.83
2023-05-09T21:19:46.672Z,38.42
2023-05-09T21:22:13.852Z,37.81
2023-05-09T21:24:40.950Z,36.88
2023-05-09T21:27:07.967Z,37.06
2023-05-09T21:29:35.122Z,36.85
2023-05-09T21:32:02.163Z,36.88
2023-05-09T21:34:29.151Z,36.29
2023-05-09T21:36:56.182Z,36.14
2023-05-09T21:39:23.193Z,36.24
2023-05-09T21:41:50.177Z,36.93
2023-05-09T21:44:17.275Z,38.38
2023-05-09T21:46:46.470Z,36.73
2023-05-09T21:49:16.742Z,38.10
2023-05-09T21:51:43.862Z,37.23
2023-05-09T21:54:11.139Z,38.28
2023-05-09T21:56:38.210Z,38.10
2023-05-09T21:59:05.241Z,38.38
2023-05-09T22:01:32.254Z,38.34
2023-05-09T22:03:59.402Z,38.98
2023-05-09T22:06:26.483Z,39.62
2023-05-09T22:08:53.527Z,39.60
2023-05-09T22:11:20.621Z,40.07
2023-05-09T22:13:47.618Z,40.25
2023-05-09T22:16:14.733Z,39.33
2023-05-09T22:18:41.775Z,39.98
2023-05-09T22:21:08.815Z,41.12
2023-05-09T22:23:35.788Z,41.24
2023-05-09T22:26:06.468Z,41.04
2023-05-09T22:28:33.513Z,41.24
2023-05-09T22:31:00.558Z,41.66
2023-05-09T22:33:27.965Z,41.03
2023-05-09T22:35:54.941Z,41.12
2023-05-09T22:38:21.986Z,41.29
2023-05-09T22:40:48.930Z,41.79
2023-05-09T22:43:15.993Z,41.56
2023-05-09T22:45:43.883Z,41.62
2023-05-09T22:48:11.015Z,42.66
2023-05-09T22:50:38.113Z,42.20
2023-05-09T22:53:05.106Z,41.98
2023-05-09T22:55:32.201Z,41.64
2023-05-09T22:57:59.194Z,41.65
2023-05-09T23:00:26.197Z,42.22
2023-05-09T23:02:53.252Z,42.43
2023-05-09T23:05:21.366Z,42.98
2023-05-09T23:07:48.549Z,42.90
2023-05-09T23:10:15.854Z,43.40
2023-05-09T23:12:43.114Z,43.55
2023-05-09T23:15:10.509Z,43.61
2023-05-09T23:17:37.511Z,44.51
2023-05-09T23:20:05.098Z,44.68
2023-05-09T23:22:32.302Z,44.68
2023-05-09T23:25:00.893Z,45.30
2023-05-09T23:27:28.346Z,45.36
2023-05-09T23:29:55.490Z,45.51
2023-05-09T23:32:22.597Z,45.95
2023-05-09T23:34:49.573Z,45.50
2023-05-09T23:37:16.947Z,46.08
2023-05-09T23:39:43.976Z,47.25
2023-05-09T23:42:12.447Z,47.28
2023-05-09T23:44:39.393Z,48.30
2023-05-09T23:47:06.465Z,48.61
2023-05-09T23:49:33.495Z,49.32
2023-05-09T23:52:00.485Z,50.33
2023-05-09T23:54:27.530Z,51.62
2023-05-09T23:56:56.692Z,51.22
2023-05-09T23:59:23.760Z,51.99
